sensor_id;sensor_type;location;lat;lon;timestamp;pressure;altitude;pressure_sealevel;temperature;humidity
63204;BME280;49297;43.210;27.914;2023-12-07T00:01:33;100852.22;;;9.06;94.26
63204;BME280;49297;43.210;27.914;2023-12-07T00:04:02;100839.03;;;9.06;94.31
63204;BME280;49297;43.210;27.914;2023-12-07T00:06:28;100839.16;;;9.04;94.68
63204;BME280;49297;43.210;27.914;2023-12-07T00:08:54;100847.91;;;9.05;94.81
63204;BME280;49297;43.210;27.914;2023-12-07T00:11:19;100837.22;;;9.06;94.57
63204;BME280;49297;43.210;27.914;2023-12-07T00:13:46;100849.47;;;9.07;94.42
63204;BME280;49297;43.210;27.914;2023-12-07T00:16:13;100849.19;;;9.10;94.32
63204;BME280;49297;43.210;27.914;2023-12-07T00:18:39;100858.81;;;9.11;94.76
63204;BME280;49297;43.210;27.914;2023-12-07T00:21:04;100857.97;;;9.11;94.38
63204;BME280;49297;43.210;27.914;2023-12-07T00:23:30;100852.13;;;9.07;95.01
63204;BME280;49297;43.210;27.914;2023-12-07T00:25:55;100858.09;;;9.09;94.67
63204;BME280;49297;43.210;27.914;2023-12-07T00:28:21;100857.25;;;9.09;94.39
63204;BME280;49297;43.210;27.914;2023-12-07T00:30:46;100860.75;;;9.09;94.65
63204;BME280;49297;43.210;27.914;2023-12-07T00:33:12;100858.22;;;9.08;94.50
63204;BME280;49297;43.210;27.914;2023-12-07T00:35:38;100859.06;;;9.08;93.90
63204;BME280;49297;43.210;27.914;2023-12-07T00:38:05;100862.69;;;9.07;94.72
63204;BME280;49297;43.210;27.914;2023-12-07T00:40:33;100865.16;;;9.09;94.11
63204;BME280;49297;43.210;27.914;2023-12-07T00:43:02;100862.53;;;9.09;93.94
63204;BME280;49297;43.210;27.914;2023-12-07T00:45:28;100856.28;;;9.10;94.16
63204;BME280;49297;43.210;27.914;2023-12-07T00:47:54;100857.13;;;9.10;94.36
63204;BME280;49297;43.210;27.914;2023-12-07T00:50:19;100857.97;;;9.11;94.33
63204;BME280;49297;43.210;27.914;2023-12-07T00:52:45;100859.66;;;9.12;94.26
63204;BME280;49297;43.210;27.914;2023-12-07T00:55:12;100864.94;;;9.12;93.87
63204;BME280;49297;43.210;27.914;2023-12-07T00:57:38;100863.00;;;9.14;94.11
63204;BME280;49297;43.210;27.914;2023-12-07T01:00:04;100859.53;;;9.13;93.77
63204;BME280;49297;43.210;27.914;2023-12-07T01:02:31;100863.38;;;9.09;93.93
63204;BME280;49297;43.210;27.914;2023-12-07T01:04:56;100851.84;;;9.10;93.95
63204;BME280;49297;43.210;27.914;2023-12-07T01:07:22;100854.47;;;9.10;93.84
63204;BME280;49297;43.210;27.914;2023-12-07T01:09:48;100851.97;;;9.09;93.77
63204;BME280;49297;43.210;27.914;2023-12-07T01:12:13;100841.28;;;9.10;93.65
63204;BME280;49297;43.210;27.914;2023-12-07T01:14:39;100841.41;;;9.09;93.68
63204;BME280;49297;43.210;27.914;2023-12-07T01:17:06;100844.91;;;9.09;93.72
63204;BME280;49297;43.210;27.914;2023-12-07T01:19:32;100845.59;;;9.11;93.55
63204;BME280;49297;43.210;27.914;2023-12-07T01:21:57;100841.16;;;9.12;93.54
63204;BME280;49297;43.210;27.914;2023-12-07T01:24:23;100837.56;;;9.13;93.30
63204;BME280;49297;43.210;27.914;2023-12-07T01:26:48;100841.97;;;9.12;93.74
63204;BME280;49297;43.210;27.914;2023-12-07T01:29:14;100845.59;;;9.11;93.35
63204;BME280;49297;43.210;27.914;2023-12-07T01:31:43;100836.84;;;9.11;93.96
63204;BME280;49297;43.210;27.914;2023-12-07T01:34:09;100839.50;;;9.11;93.84
63204;BME280;49297;43.210;27.914;2023-12-07T01:36:35;100840.31;;;9.11;93.87
63204;BME280;49297;43.210;27.914;2023-12-07T01:39:00;100832.41;;;9.11;93.21
63204;BME280;49297;43.210;27.914;2023-12-07T01:41:26;100835.03;;;9.11;93.27
63204;BME280;49297;43.210;27.914;2023-12-07T01:43:51;100836.84;;;9.11;93.78
63204;BME280;49297;43.210;27.914;2023-12-07T01:46:17;100837.69;;;9.11;93.42
63204;BME280;49297;43.210;27.914;2023-12-07T01:48:43;100839.50;;;9.11;93.53
63204;BME280;49297;43.210;27.914;2023-12-07T01:51:09;100840.44;;;9.10;93.07
63204;BME280;49297;43.210;27.914;2023-12-07T01:53:37;100840.44;;;9.10;93.08
63204;BME280;49297;43.210;27.914;2023-12-07T01:56:04;100836.25;;;9.07;92.94
63204;BME280;49297;43.210;27.914;2023-12-07T01:58:31;100834.47;;;9.08;93.11
63204;BME280;49297;43.210;27.914;2023-12-07T02:00:56;100844.03;;;9.09;92.88
63204;BME280;49297;43.210;27.914;2023-12-07T02:03:22;100848.50;;;9.08;93.29
63204;BME280;49297;43.210;27.914;2023-12-07T02:05:48;100845.13;;;9.06;93.50
63204;BME280;49297;43.210;27.914;2023-12-07T02:08:14;100843.44;;;9.05;93.28
63204;BME280;49297;43.210;27.914;2023-12-07T02:10:40;100849.59;;;9.06;93.09
63204;BME280;49297;43.210;27.914;2023-12-07T02:13:06;100847.91;;;9.05;92.76
63204;BME280;49297;43.210;27.914;2023-12-07T02:15:32;100844.44;;;9.04;92.75
63204;BME280;49297;43.210;27.914;2023-12-07T02:23:02;100847.06;;;9.04;93.18
63204;BME280;49297;43.210;27.914;2023-12-07T02:25:35;100852.47;;;9.03;92.72
63204;BME280;49297;43.210;27.914;2023-12-07T02:28:02;100846.25;;;9.04;92.85
63204;BME280;49297;43.210;27.914;2023-12-07T02:30:27;100841.91;;;9.03;92.63
63204;BME280;49297;43.210;27.914;2023-12-07T02:32:53;100849.94;;;9.01;92.76
63204;BME280;49297;43.210;27.914;2023-12-07T02:35:18;100847.31;;;9.01;93.05
63204;BME280;49297;43.210;27.914;2023-12-07T02:37:50;100847.44;;;9.00;92.94
63204;BME280;49297;43.210;27.914;2023-12-07T02:40:25;100862.31;;;9.01;92.88
63204;BME280;49297;43.210;27.914;2023-12-07T02:42:55;100847.56;;;8.98;92.17
63204;BME280;49297;43.210;27.914;2023-12-07T02:45:21;100852.00;;;8.98;92.46
63204;BME280;49297;43.210;27.914;2023-12-07T02:47:47;100851.28;;;8.95;92.59
63204;BME280;49297;43.210;27.914;2023-12-07T02:50:12;100851.28;;;8.95;92.92
63204;BME280;49297;43.210;27.914;2023-12-07T02:52:38;100855.75;;;8.95;92.86
63204;BME280;49297;43.210;27.914;2023-12-07T02:55:04;100854.88;;;8.94;92.47
63204;BME280;49297;43.210;27.914;2023-12-07T02:57:30;100857.53;;;8.94;92.07
63204;BME280;49297;43.210;27.914;2023-12-07T02:59:56;100850.59;;;8.93;92.13
63204;BME280;49297;43.210;27.914;2023-12-07T03:02:22;100850.69;;;8.92;92.43
63204;BME280;49297;43.210;27.914;2023-12-07T03:04:47;100853.34;;;8.92;92.01
63204;BME280;49297;43.210;27.914;2023-12-07T03:07:14;100858.75;;;8.90;92.16
63204;BME280;49297;43.210;27.914;2023-12-07T03:09:39;100857.31;;;8.86;92.14
63204;BME280;49297;43.210;27.914;2023-12-07T03:12:06;100860.78;;;8.87;92.26
63204;BME280;49297;43.210;27.914;2023-12-07T03:14:32;100863.44;;;8.87;91.61
63204;BME280;49297;43.210;27.914;2023-12-07T03:16:58;100861.75;;;8.86;92.36
63204;BME280;49297;43.210;27.914;2023-12-07T03:19:23;100868.81;;;8.85;91.72
63204;BME280;49297;43.210;27.914;2023-12-07T03:21:49;100863.66;;;8.84;91.92
63204;BME280;49297;43.210;27.914;2023-12-07T03:24:14;100866.41;;;8.82;92.09
63204;BME280;49297;43.210;27.914;2023-12-07T03:26:40;100862.25;;;8.80;92.10
63204;BME280;49297;43.210;27.914;2023-12-07T03:29:06;100872.69;;;8.81;91.56
63204;BME280;49297;43.210;27.914;2023-12-07T03:31:31;100855.16;;;8.80;91.58
63204;BME280;49297;43.210;27.914;2023-12-07T03:33:57;100868.22;;;8.82;92.07
63204;BME280;49297;43.210;27.914;2023-12-07T03:36:24;100869.22;;;8.81;91.76
63204;BME280;49297;43.210;27.914;2023-12-07T03:38:49;100862.25;;;8.80;91.34
63204;BME280;49297;43.210;27.914;2023-12-07T03:41:15;100865.00;;;8.78;91.65
63204;BME280;49297;43.210;27.914;2023-12-07T03:43:40;100857.91;;;8.79;91.40
63204;BME280;49297;43.210;27.914;2023-12-07T03:46:06;100856.13;;;8.79;91.61
63204;BME280;49297;43.210;27.914;2023-12-07T03:48:32;100858.06;;;8.77;91.49
63204;BME280;49297;43.210;27.914;2023-12-07T03:50:58;100862.34;;;8.78;91.48
63204;BME280;49297;43.210;27.914;2023-12-07T03:53:24;100865.81;;;8.79;91.78
63204;BME280;49297;43.210;27.914;2023-12-07T03:55:51;100865.97;;;8.77;91.36
63204;BME280;49297;43.210;27.914;2023-12-07T03:58:17;100868.63;;;8.77;91.56
63204;BME280;49297;43.210;27.914;2023-12-07T04:00:44;100868.63;;;8.77;91.10
63204;BME280;49297;43.210;27.914;2023-12-07T04:03:09;100872.22;;;8.76;90.97
63204;BME280;49297;43.210;27.914;2023-12-07T04:05:36;100868.63;;;8.77;91.51
63204;BME280;49297;43.210;27.914;2023-12-07T04:08:02;100868.63;;;8.77;91.23
63204;BME280;49297;43.210;27.914;2023-12-07T04:10:29;100873.16;;;8.75;90.98
63204;BME280;49297;43.210;27.914;2023-12-07T04:12:57;100873.91;;;8.77;90.97
63204;BME280;49297;43.210;27.914;2023-12-07T04:15:22;100885.28;;;8.77;90.48
63204;BME280;49297;43.210;27.914;2023-12-07T04:17:48;100881.81;;;8.77;90.94
63204;BME280;49297;43.210;27.914;2023-12-07T04:20:14;100889.84;;;8.75;91.13
63204;BME280;49297;43.210;27.914;2023-12-07T04:22:39;100892.63;;;8.74;90.20
63204;BME280;49297;43.210;27.914;2023-12-07T04:25:05;100888.28;;;8.73;91.41
63204;BME280;49297;43.210;27.914;2023-12-07T04:27:31;100890.22;;;8.71;90.23
63204;BME280;49297;43.210;27.914;2023-12-07T04:30:00;100891.31;;;8.68;90.49
63204;BME280;49297;43.210;27.914;2023-12-07T04:32:25;100896.69;;;8.67;91.04
63204;BME280;49297;43.210;27.914;2023-12-07T04:34:51;100898.84;;;8.62;90.56
63204;BME280;49297;43.210;27.914;2023-12-07T04:37:17;100894.78;;;8.57;90.20
63204;BME280;49297;43.210;27.914;2023-12-07T04:39:42;100898.00;;;8.50;90.00
63204;BME280;49297;43.210;27.914;2023-12-07T04:42:08;100888.06;;;8.42;89.18
63204;BME280;49297;43.210;27.914;2023-12-07T04:44:33;100893.66;;;8.37;89.42
63204;BME280;49297;43.210;27.914;2023-12-07T04:46:59;100889.81;;;8.30;89.01
63204;BME280;49297;43.210;27.914;2023-12-07T04:49:25;100900.63;;;8.27;89.39
63204;BME280;49297;43.210;27.914;2023-12-07T04:51:50;100896.41;;;8.25;89.13
63204;BME280;49297;43.210;27.914;2023-12-07T04:54:16;100903.00;;;8.19;88.65
63204;BME280;49297;43.210;27.914;2023-12-07T04:56:41;100889.19;;;8.15;88.33
63204;BME280;49297;43.210;27.914;2023-12-07T04:59:07;100885.00;;;8.13;88.97
63204;BME280;49297;43.210;27.914;2023-12-07T05:01:34;100894.97;;;8.09;88.32
63204;BME280;49297;43.210;27.914;2023-12-07T05:04:01;100899.63;;;8.06;89.05
63204;BME280;49297;43.210;27.914;2023-12-07T05:06:29;100902.47;;;8.03;88.47
63204;BME280;49297;43.210;27.914;2023-12-07T05:08:54;100900.78;;;8.01;88.38
63204;BME280;49297;43.210;27.914;2023-12-07T05:11:20;100895.75;;;7.98;88.20
63204;BME280;49297;43.210;27.914;2023-12-07T05:13:45;100888.91;;;7.96;88.20
63204;BME280;49297;43.210;27.914;2023-12-07T05:16:13;100896.81;;;7.96;88.42
63204;BME280;49297;43.210;27.914;2023-12-07T05:18:38;100898.84;;;7.92;88.16
63204;BME280;49297;43.210;27.914;2023-12-07T05:21:04;100897.31;;;7.90;87.87
63204;BME280;49297;43.210;27.914;2023-12-07T05:23:29;100897.41;;;7.88;88.78
63204;BME280;49297;43.210;27.914;2023-12-07T05:25:55;100896.34;;;7.91;88.95
63204;BME280;49297;43.210;27.914;2023-12-07T05:28:21;100897.41;;;7.88;88.10
63204;BME280;49297;43.210;27.914;2023-12-07T05:30:48;100888.91;;;7.85;88.50
63204;BME280;49297;43.210;27.914;2023-12-07T05:33:13;100893.44;;;7.82;87.54
63204;BME280;49297;43.210;27.914;2023-12-07T05:35:40;100899.66;;;7.81;88.21
63204;BME280;49297;43.210;27.914;2023-12-07T05:38:05;100896.31;;;7.79;87.64
63204;BME280;49297;43.210;27.914;2023-12-07T05:40:44;100899.66;;;7.81;88.54
63204;BME280;49297;43.210;27.914;2023-12-07T05:43:09;100894.41;;;7.81;88.16
63204;BME280;49297;43.210;27.914;2023-12-07T05:45:35;100896.31;;;7.79;88.38
63204;BME280;49297;43.210;27.914;2023-12-07T05:50:29;100907.06;;;7.76;88.03
63204;BME280;49297;43.210;27.914;2023-12-07T05:52:55;100905.41;;;7.75;88.30
63204;BME280;49297;43.210;27.914;2023-12-07T05:55:20;100903.72;;;7.74;87.90
63204;BME280;49297;43.210;27.914;2023-12-07T05:57:46;100909.94;;;7.73;88.38
63204;BME280;49297;43.210;27.914;2023-12-07T06:00:12;100916.78;;;7.76;88.49
63204;BME280;49297;43.210;27.914;2023-12-07T06:02:37;100914.16;;;7.76;87.92
63204;BME280;49297;43.210;27.914;2023-12-07T06:05:03;100913.44;;;7.74;88.09
63204;BME280;49297;43.210;27.914;2023-12-07T06:07:33;100923.97;;;7.74;88.29
63204;BME280;49297;43.210;27.914;2023-12-07T06:10:00;100916.91;;;7.74;87.90
63204;BME280;49297;43.210;27.914;2023-12-07T06:12:25;100929.97;;;7.76;88.00
63204;BME280;49297;43.210;27.914;2023-12-07T06:14:51;100929.34;;;7.72;87.21
63204;BME280;49297;43.210;27.914;2023-12-07T06:17:16;100926.22;;;7.67;87.23
63204;BME280;49297;43.210;27.914;2023-12-07T06:19:43;100924.88;;;7.61;87.65
63204;BME280;49297;43.210;27.914;2023-12-07T06:22:08;100933.84;;;7.59;87.57
63204;BME280;49297;43.210;27.914;2023-12-07T06:24:36;100920.56;;;7.60;87.66
63204;BME280;49297;43.210;27.914;2023-12-07T06:27:03;100930.16;;;7.61;87.68
63204;BME280;49297;43.210;27.914;2023-12-07T06:29:28;100936.97;;;7.64;88.01
63204;BME280;49297;43.210;27.914;2023-12-07T06:31:59;100940.59;;;7.63;87.50
63204;BME280;49297;43.210;27.914;2023-12-07T06:34:25;100930.25;;;7.60;88.05
63204;BME280;49297;43.210;27.914;2023-12-07T06:36:51;100940.06;;;7.58;87.23
63204;BME280;49297;43.210;27.914;2023-12-07T06:39:16;100940.81;;;7.60;88.04
63204;BME280;49297;43.210;27.914;2023-12-07T06:41:42;100933.72;;;7.60;87.18
63204;BME280;49297;43.210;27.914;2023-12-07T06:44:07;100942.34;;;7.62;87.58
63204;BME280;49297;43.210;27.914;2023-12-07T06:46:33;100948.50;;;7.63;87.83
63204;BME280;49297;43.210;27.914;2023-12-07T06:48:59;100952.16;;;7.60;87.70
63204;BME280;49297;43.210;27.914;2023-12-07T06:51:25;100957.34;;;7.62;87.69
63204;BME280;49297;43.210;27.914;2023-12-07T06:53:51;100944.25;;;7.60;87.76
63204;BME280;49297;43.210;27.914;2023-12-07T06:56:16;100952.06;;;7.62;87.32
63204;BME280;49297;43.210;27.914;2023-12-07T06:58:42;100953.00;;;7.61;87.95
63204;BME280;49297;43.210;27.914;2023-12-07T07:01:07;100956.41;;;7.63;88.00
63204;BME280;49297;43.210;27.914;2023-12-07T07:03:34;100964.16;;;7.65;87.84
63204;BME280;49297;43.210;27.914;2023-12-07T07:06:00;100965.75;;;7.67;88.28
63204;BME280;49297;43.210;27.914;2023-12-07T07:08:28;100960.97;;;7.72;88.37
63204;BME280;49297;43.210;27.914;2023-12-07T07:10:55;100962.88;;;7.70;88.17
63204;BME280;49297;43.210;27.914;2023-12-07T07:13:20;100963.72;;;7.71;87.76
63204;BME280;49297;43.210;27.914;2023-12-07T07:15:46;100971.75;;;7.69;88.15
63204;BME280;49297;43.210;27.914;2023-12-07T07:18:13;100966.47;;;7.69;87.75
63204;BME280;49297;43.210;27.914;2023-12-07T07:20:39;100965.53;;;7.70;88.18
63204;BME280;49297;43.210;27.914;2023-12-07T07:23:04;100975.00;;;7.73;87.44
63204;BME280;49297;43.210;27.914;2023-12-07T07:25:30;100978.25;;;7.76;87.82
63204;BME280;49297;43.210;27.914;2023-12-07T07:27:57;100978.25;;;7.76;87.38
63204;BME280;49297;43.210;27.914;2023-12-07T07:30:24;100989.75;;;7.75;88.00
63204;BME280;49297;43.210;27.914;2023-12-07T07:32:50;100978.47;;;7.73;87.82
63204;BME280;49297;43.210;27.914;2023-12-07T07:35:15;100980.03;;;7.76;88.37
63204;BME280;49297;43.210;27.914;2023-12-07T07:37:41;100979.31;;;7.74;87.75
63204;BME280;49297;43.210;27.914;2023-12-07T07:40:07;100983.72;;;7.73;88.32
63204;BME280;49297;43.210;27.914;2023-12-07T07:42:36;100977.63;;;7.73;87.89
63204;BME280;49297;43.210;27.914;2023-12-07T07:45:01;100981.09;;;7.73;87.51
63204;BME280;49297;43.210;27.914;2023-12-07T07:47:27;100984.69;;;7.72;88.41
63204;BME280;49297;43.210;27.914;2023-12-07T07:49:52;100997.53;;;7.77;88.28
63204;BME280;49297;43.210;27.914;2023-12-07T07:52:18;100994.66;;;7.80;88.25
63204;BME280;49297;43.210;27.914;2023-12-07T07:54:44;100993.00;;;7.79;88.23
63204;BME280;49297;43.210;27.914;2023-12-07T07:57:10;100994.06;;;7.76;87.95
63204;BME280;49297;43.210;27.914;2023-12-07T07:59:35;101001.97;;;7.76;87.57
63204;BME280;49297;43.210;27.914;2023-12-07T08:02:01;101014.31;;;7.76;87.35
63204;BME280;49297;43.210;27.914;2023-12-07T08:04:26;101015.16;;;7.76;87.89
63204;BME280;49297;43.210;27.914;2023-12-07T08:06:52;101015.25;;;7.75;87.40
63204;BME280;49297;43.210;27.914;2023-12-07T08:09:17;101020.53;;;7.75;87.69
63204;BME280;49297;43.210;27.914;2023-12-07T08:11:43;101020.31;;;7.78;87.73
63204;BME280;49297;43.210;27.914;2023-12-07T08:14:08;101020.41;;;7.76;87.24
63204;BME280;49297;43.210;27.914;2023-12-07T08:16:35;101017.66;;;7.78;86.96
63204;BME280;49297;43.210;27.914;2023-12-07T08:19:00;101008.81;;;7.79;87.16
63204;BME280;49297;43.210;27.914;2023-12-07T08:21:26;101010.28;;;7.83;87.76
63204;BME280;49297;43.210;27.914;2023-12-07T08:23:51;101017.97;;;7.86;87.36
63204;BME280;49297;43.210;27.914;2023-12-07T08:26:17;101015.44;;;7.85;87.79
63204;BME280;49297;43.210;27.914;2023-12-07T08:28:43;101013.31;;;7.90;87.73
63204;BME280;49297;43.210;27.914;2023-12-07T08:31:09;101006.44;;;7.87;87.35
63204;BME280;49297;43.210;27.914;2023-12-07T08:33:35;101011.81;;;7.86;87.47
63204;BME280;49297;43.210;27.914;2023-12-07T08:36:01;101013.63;;;7.85;87.94
63204;BME280;49297;43.210;27.914;2023-12-07T08:38:28;101019.75;;;7.86;87.80
63204;BME280;49297;43.210;27.914;2023-12-07T08:40:53;101018.56;;;7.90;87.33
63204;BME280;49297;43.210;27.914;2023-12-07T08:43:20;101017.50;;;7.92;87.28
63204;BME280;49297;43.210;27.914;2023-12-07T08:45:48;101022.66;;;7.94;87.53
63204;BME280;49297;43.210;27.914;2023-12-07T08:48:13;101027.72;;;7.97;88.10
63204;BME280;49297;43.210;27.914;2023-12-07T08:50:51;101023.91;;;8.01;87.11
63204;BME280;49297;43.210;27.914;2023-12-07T08:53:17;101020.28;;;8.02;88.14
63204;BME280;49297;43.210;27.914;2023-12-07T08:55:43;101028.69;;;8.07;87.75
63204;BME280;49297;43.210;27.914;2023-12-07T08:58:09;101017.09;;;8.10;87.64
63204;BME280;49297;43.210;27.914;2023-12-07T09:00:38;101026.81;;;8.09;87.39
63204;BME280;49297;43.210;27.914;2023-12-07T09:03:04;101022.25;;;8.11;86.74
63204;BME280;49297;43.210;27.914;2023-12-07T09:05:30;101023.72;;;8.15;87.43
63204;BME280;49297;43.210;27.914;2023-12-07T09:07:56;101023.72;;;8.15;86.98
63204;BME280;49297;43.210;27.914;2023-12-07T09:12:51;101026.69;;;8.11;86.23
63204;BME280;49297;43.210;27.914;2023-12-07T09:15:17;101028.59;;;8.09;86.50
63204;BME280;49297;43.210;27.914;2023-12-07T09:20:11;101027.75;;;8.08;85.60
63204;BME280;49297;43.210;27.914;2023-12-07T09:22:42;101034.13;;;8.06;85.35
63204;BME280;49297;43.210;27.914;2023-12-07T09:25:08;101028.94;;;8.04;85.79
63204;BME280;49297;43.210;27.914;2023-12-07T09:27:33;101023.91;;;8.01;85.19
63204;BME280;49297;43.210;27.914;2023-12-07T09:30:00;101029.88;;;8.03;85.56
63204;BME280;49297;43.210;27.914;2023-12-07T09:32:26;101023.78;;;8.03;84.72
63204;BME280;49297;43.210;27.914;2023-12-07T09:34:53;101025.56;;;8.02;85.45
63204;BME280;49297;43.210;27.914;2023-12-07T09:37:19;101015.16;;;8.00;85.52
63204;BME280;49297;43.210;27.914;2023-12-07T09:39:52;101011.44;;;8.03;84.80
63204;BME280;49297;43.210;27.914;2023-12-07T09:42:18;101015.38;;;7.97;84.93
63204;BME280;49297;43.210;27.914;2023-12-07T09:44:43;101023.38;;;7.96;84.33
63204;BME280;49297;43.210;27.914;2023-12-07T09:47:10;101018.84;;;7.98;85.12
63204;BME280;49297;43.210;27.914;2023-12-07T09:49:37;101013.56;;;7.98;84.45
63204;BME280;49297;43.210;27.914;2023-12-07T09:52:02;101020.16;;;8.04;84.82
63204;BME280;49297;43.210;27.914;2023-12-07T09:54:30;101026.41;;;8.03;84.42
63204;BME280;49297;43.210;27.914;2023-12-07T09:56:56;101024.00;;;7.99;84.26
63204;BME280;49297;43.210;27.914;2023-12-07T09:59:22;101025.31;;;7.94;83.48
63204;BME280;49297;43.210;27.914;2023-12-07T10:01:48;101021.31;;;7.88;82.71
63204;BME280;49297;43.210;27.914;2023-12-07T10:04:15;101018.06;;;7.85;83.07
63204;BME280;49297;43.210;27.914;2023-12-07T10:06:44;101011.72;;;7.87;83.56
63204;BME280;49297;43.210;27.914;2023-12-07T10:09:10;101020.31;;;7.78;82.59
63204;BME280;49297;43.210;27.914;2023-12-07T10:11:36;101019.50;;;7.65;81.90
63204;BME280;49297;43.210;27.914;2023-12-07T10:14:02;101011.94;;;7.60;81.35
63204;BME280;49297;43.210;27.914;2023-12-07T10:16:28;101012.25;;;7.55;81.44
63204;BME280;49297;43.210;27.914;2023-12-07T10:18:53;101015.47;;;7.48;80.99
63204;BME280;49297;43.210;27.914;2023-12-07T10:21:34;101019.50;;;7.40;80.74
63204;BME280;49297;43.210;27.914;2023-12-07T10:23:59;101010.97;;;7.37;81.66
63204;BME280;49297;43.210;27.914;2023-12-07T10:26:25;101023.72;;;7.30;81.31
63204;BME280;49297;43.210;27.914;2023-12-07T10:28:51;101023.63;;;7.32;81.67
63204;BME280;49297;43.210;27.914;2023-12-07T10:31:19;101025.31;;;7.33;81.91
63204;BME280;49297;43.210;27.914;2023-12-07T10:33:52;101023.31;;;7.36;82.35
63204;BME280;49297;43.210;27.914;2023-12-07T10:39:04;101024.75;;;7.40;82.12
63204;BME280;49297;43.210;27.914;2023-12-07T10:41:33;101023.94;;;7.40;81.90
63204;BME280;49297;43.210;27.914;2023-12-07T10:44:03;101019.91;;;7.34;81.28
63204;BME280;49297;43.210;27.914;2023-12-07T10:46:29;101029.53;;;7.22;80.74
63204;BME280;49297;43.210;27.914;2023-12-07T10:49:01;101024.28;;;7.22;81.26
63204;BME280;49297;43.210;27.914;2023-12-07T10:51:37;101023.09;;;7.27;81.37
63204;BME280;49297;43.210;27.914;2023-12-07T10:54:05;101016.91;;;7.28;81.04
63204;BME280;49297;43.210;27.914;2023-12-07T10:56:43;101027.75;;;7.23;81.39
63204;BME280;49297;43.210;27.914;2023-12-07T10:59:09;101030.38;;;7.23;81.33
63204;BME280;49297;43.210;27.914;2023-12-07T11:01:41;101029.44;;;7.24;81.10
63204;BME280;49297;43.210;27.914;2023-12-07T11:04:12;101040.19;;;7.21;81.07
63204;BME280;49297;43.210;27.914;2023-12-07T11:06:39;101035.84;;;7.20;80.79
63204;BME280;49297;43.210;27.914;2023-12-07T11:09:07;101033.66;;;7.14;79.79
63204;BME280;49297;43.210;27.914;2023-12-07T11:11:54;101039.25;;;7.09;80.26
63204;BME280;49297;43.210;27.914;2023-12-07T11:14:23;101039.97;;;6.98;80.01
63204;BME280;49297;43.210;27.914;2023-12-07T11:16:49;101045.47;;;6.95;80.25
63204;BME280;49297;43.210;27.914;2023-12-07T11:22:02;101045.88;;;6.89;80.14
63204;BME280;49297;43.210;27.914;2023-12-07T11:24:34;101038.97;;;6.88;80.70
63204;BME280;49297;43.210;27.914;2023-12-07T11:27:01;101045.47;;;6.82;80.35
63204;BME280;49297;43.210;27.914;2023-12-07T11:29:30;101045.47;;;6.82;80.63
63204;BME280;49297;43.210;27.914;2023-12-07T11:31:56;101053.88;;;6.75;80.28
63204;BME280;49297;43.210;27.914;2023-12-07T11:37:01;101060.72;;;6.64;80.29
63204;BME280;49297;43.210;27.914;2023-12-07T11:39:28;101053.88;;;6.62;80.56
63204;BME280;49297;43.210;27.914;2023-12-07T11:41:55;101052.91;;;6.50;80.00
63204;BME280;49297;43.210;27.914;2023-12-07T11:44:32;101059.53;;;6.43;80.83
63204;BME280;49297;43.210;27.914;2023-12-07T11:47:00;101060.69;;;6.39;81.24
63204;BME280;49297;43.210;27.914;2023-12-07T11:49:28;101055.53;;;6.37;81.18
63204;BME280;49297;43.210;27.914;2023-12-07T11:54:57;101062.59;;;6.37;81.26
63204;BME280;49297;43.210;27.914;2023-12-07T11:57:22;101066.69;;;6.41;81.15
63204;BME280;49297;43.210;27.914;2023-12-07T11:59:48;101062.50;;;6.38;81.28
63204;BME280;49297;43.210;27.914;2023-12-07T12:02:14;101062.50;;;6.38;81.31
63204;BME280;49297;43.210;27.914;2023-12-07T12:04:41;101060.78;;;6.37;81.19
63204;BME280;49297;43.210;27.914;2023-12-07T12:07:06;101065.31;;;6.35;81.01
63204;BME280;49297;43.210;27.914;2023-12-07T12:09:32;101053.59;;;6.26;80.95
63204;BME280;49297;43.210;27.914;2023-12-07T12:12:00;101065.56;;;6.18;80.82
63204;BME280;49297;43.210;27.914;2023-12-07T12:14:26;101068.63;;;6.12;80.15
63204;BME280;49297;43.210;27.914;2023-12-07T12:16:53;101063.94;;;6.02;80.83
63204;BME280;49297;43.210;27.914;2023-12-07T12:19:19;101071.19;;;5.99;81.35
63204;BME280;49297;43.210;27.914;2023-12-07T12:21:45;101059.91;;;5.97;81.50
63204;BME280;49297;43.210;27.914;2023-12-07T12:24:12;101064.81;;;6.03;81.82
63204;BME280;49297;43.210;27.914;2023-12-07T12:26:39;101056.69;;;6.06;82.04
63204;BME280;49297;43.210;27.914;2023-12-07T12:29:05;101058.28;;;6.08;82.00
63204;BME280;49297;43.210;27.914;2023-12-07T12:31:32;101054.41;;;6.14;82.40
63204;BME280;49297;43.210;27.914;2023-12-07T12:34:00;101063.47;;;6.10;82.30
63204;BME280;49297;43.210;27.914;2023-12-07T12:36:28;101064.19;;;6.12;82.19
63204;BME280;49297;43.210;27.914;2023-12-07T12:39:01;101066.09;;;6.10;82.28
63204;BME280;49297;43.210;27.914;2023-12-07T12:41:27;101056.41;;;6.10;82.03
63204;BME280;49297;43.210;27.914;2023-12-07T12:43:56;101065.22;;;6.09;82.12
63204;BME280;49297;43.210;27.914;2023-12-07T12:46:21;101062.59;;;6.09;81.87
63204;BME280;49297;43.210;27.914;2023-12-07T12:48:54;101065.34;;;6.08;81.49
63204;BME280;49297;43.210;27.914;2023-12-07T12:51:23;101065.81;;;6.00;81.36
63204;BME280;49297;43.210;27.914;2023-12-07T12:53:50;101059.25;;;5.93;80.87
63204;BME280;49297;43.210;27.914;2023-12-07T12:56:16;101070.06;;;5.88;81.41
63204;BME280;49297;43.210;27.914;2023-12-07T12:58:42;101069.31;;;5.86;81.66
63204;BME280;49297;43.210;27.914;2023-12-07T13:01:08;101067.34;;;5.90;81.43
63204;BME280;49297;43.210;27.914;2023-12-07T13:03:34;101073.13;;;5.95;81.81
63204;BME280;49297;43.210;27.914;2023-12-07T13:05:59;101078.31;;;5.97;81.29
63204;BME280;49297;43.210;27.914;2023-12-07T13:08:25;101072.69;;;5.88;80.94
63204;BME280;49297;43.210;27.914;2023-12-07T13:10:50;101088.66;;;5.85;80.88